createdAt,value
2023-02-02T00:00:15.509Z,97812.72
2023-02-02T00:01:20.644Z,97808.38
2023-02-02T00:02:23.593Z,97809.47
2023-02-02T00:03:26.696Z,97813.63
2023-02-02T00:04:33.379Z,97808.22
2023-02-02T00:05:36.366Z,97809.47
2023-02-02T00:06:39.634Z,97803.31
2023-02-02T00:07:42.548Z,97808.72
2023-02-02T00:08:45.713Z,97812.00
2023-02-02T00:09:48.739Z,97807.63
2023-02-02T00:10:51.715Z,97810.50
2023-02-02T00:11:55.031Z,97816.66
2023-02-02T00:12:58.311Z,97809.47
2023-02-02T00:14:01.317Z,97813.06
2023-02-02T00:15:04.828Z,97813.47
2023-02-02T00:16:29.349Z,97811.28
2023-02-02T00:17:32.343Z,97816.34
2023-02-02T00:18:35.252Z,97818.16
2023-02-02T00:19:38.275Z,97814.37
2023-02-02T00:20:41.356Z,97815.09
2023-02-02T00:21:44.784Z,97808.06
2023-02-02T00:22:47.707Z,97804.44
2023-02-02T00:23:50.750Z,97807.53
2023-02-02T00:24:53.899Z,97797.94
2023-02-02T00:25:57.735Z,97799.91
2023-02-02T00:27:01.213Z,97803.72
2023-02-02T00:28:04.595Z,97798.63
2023-02-02T00:29:08.673Z,97802.25
2023-02-02T00:30:12.392Z,97803.00
2023-02-02T00:31:15.372Z,97798.28
2023-02-02T00:32:18.458Z,97795.41
2023-02-02T00:33:21.474Z,97801.53
2023-02-02T00:34:24.921Z,97802.06
2023-02-02T00:35:28.419Z,97797.19
2023-02-02T00:36:31.585Z,97786.50
2023-02-02T00:37:34.944Z,97776.19
2023-02-02T00:38:38.417Z,97778.72
2023-02-02T00:39:45.023Z,97770.81
2023-02-02T00:40:47.935Z,97768.28
2023-02-02T00:41:50.961Z,97769.53
2023-02-02T00:42:53.967Z,97771.72
2023-02-02T00:44:15.524Z,97757.06
2023-02-02T00:45:18.812Z,97767.37
2023-02-02T00:46:21.935Z,97775.69
2023-02-02T00:47:25.588Z,97787.28
2023-02-02T00:48:28.715Z,97799.41
2023-02-02T00:49:32.057Z,97801.41
2023-02-02T00:50:35.031Z,97825.44
2023-02-02T00:51:38.372Z,97813.69
2023-02-02T00:52:41.358Z,97812.06
2023-02-02T00:53:44.402Z,97808.81
2023-02-02T00:54:47.457Z,97810.09
2023-02-02T00:55:50.422Z,97821.34
2023-02-02T00:56:53.628Z,97838.50
2023-02-02T00:57:56.910Z,97824.06
2023-02-02T00:59:00.009Z,97821.50
2023-02-02T01:00:03.801Z,97818.97
2023-02-02T01:01:15.178Z,97824.22
2023-02-02T01:02:18.222Z,97824.38
2023-02-02T01:03:21.331Z,97826.53
2023-02-02T01:04:24.898Z,97818.06
2023-02-02T01:05:27.797Z,97822.94
2023-02-02T01:06:31.681Z,97822.00
2023-02-02T01:07:34.591Z,97812.75
2023-02-02T01:08:41.065Z,97808.25
2023-02-02T01:09:44.182Z,97805.00
2023-02-02T01:10:47.210Z,97808.28
2023-02-02T01:11:50.285Z,97806.25
2023-02-02T01:12:53.260Z,97806.59
2023-02-02T01:13:56.498Z,97798.47
2023-02-02T01:14:59.419Z,97804.81
2023-02-02T01:16:03.563Z,97809.69
2023-02-02T01:17:06.811Z,97796.69
2023-02-02T01:18:09.750Z,97791.75
2023-02-02T01:19:16.304Z,97797.91
2023-02-02T01:20:20.836Z,97799.72
2023-02-02T01:21:24.031Z,97799.88
2023-02-02T01:22:27.041Z,97806.41
2023-02-02T01:23:30.927Z,97798.78
2023-02-02T01:24:34.348Z,97797.50
2023-02-02T01:25:38.769Z,97804.72
2023-02-02T01:26:41.924Z,97820.47
2023-02-02T01:27:44.972Z,97815.41
2023-02-02T01:28:48.209Z,97813.37
2023-02-02T01:29:51.216Z,97819.34
2023-02-02T01:30:54.747Z,97820.06
2023-02-02T01:31:58.013Z,97820.22
2023-02-02T01:33:01.169Z,97808.66
2023-02-02T01:34:04.516Z,97812.97
2023-02-02T01:35:08.007Z,97821.47
2023-02-02T01:36:17.603Z,97816.56
2023-02-02T01:37:22.460Z,97831.94
2023-02-02T01:38:25.501Z,97824.19
2023-02-02T01:39:28.831Z,97830.50
2023-02-02T01:40:31.916Z,97820.59
2023-02-02T01:41:35.057Z,97827.25
2023-02-02T01:42:38.103Z,97818.38
2023-02-02T01:43:44.332Z,97806.81
2023-02-02T01:44:53.649Z,97815.88
2023-02-02T01:45:59.471Z,97807.91
2023-02-02T01:47:02.684Z,97804.22
2023-02-02T01:48:05.635Z,97798.09
2023-02-02T01:49:11.212Z,97790.28
2023-02-02T01:50:16.991Z,97791.53
2023-02-02T01:51:23.244Z,97796.03
2023-02-02T01:52:29.222Z,97788.84
2023-02-02T01:53:33.979Z,97802.72
2023-02-02T01:54:40.984Z,97790.09
2023-02-02T01:55:44.175Z,97796.25
2023-02-02T01:56:55.720Z,97787.56
2023-02-02T01:58:06.419Z,97781.44
2023-02-02T01:59:11.225Z,97779.62
2023-02-02T02:00:16.629Z,97781.97
2023-02-02T02:01:19.547Z,97778.72
2023-02-02T02:02:22.937Z,97774.19
2023-02-02T02:03:28.617Z,97777.44
2023-02-02T02:04:32.816Z,97781.75
2023-02-02T02:05:41.328Z,97772.72
2023-02-02T02:06:45.648Z,97772.75
2023-02-02T02:07:53.025Z,97764.62
2023-02-02T02:09:04.835Z,97771.31
2023-02-02T02:10:08.702Z,97773.13
2023-02-02T02:11:11.814Z,97774.34
2023-02-02T02:12:16.325Z,97767.31
2023-02-02T02:13:21.527Z,97761.88
2023-02-02T02:14:43.109Z,97765.50
2023-02-02T02:16:19.613Z,97753.37
2023-02-02T02:17:41.402Z,97760.78
2023-02-02T02:18:56.071Z,97755.53
2023-02-02T02:20:36.133Z,97765.72
2023-02-02T02:22:14.603Z,97759.56
2023-02-02T02:24:08.016Z,97759.72
2023-02-02T02:26:07.569Z,97752.81
2023-02-02T02:27:19.404Z,97743.63
2023-02-02T02:28:49.433Z,97765.31
2023-02-02T02:30:35.299Z,97770.19
2023-02-02T02:31:59.736Z,97770.88
2023-02-02T02:33:19.904Z,97782.13
2023-02-02T02:34:35.041Z,97789.31
2023-02-02T02:35:41.023Z,97784.84
2023-02-02T02:37:07.938Z,97776.16
2023-02-02T02:38:29.418Z,97781.41
2023-02-02T02:39:50.801Z,97787.88
2023-02-02T02:41:02.112Z,97786.06
2023-02-02T02:42:20.657Z,97779.06
2023-02-02T02:43:31.605Z,97783.72
2023-02-02T02:44:35.672Z,97778.22
2023-02-02T02:45:39.653Z,97794.31
2023-02-02T02:46:43.755Z,97789.44
2023-02-02T02:47:50.031Z,97787.62
2023-02-02T02:48:53.710Z,97780.22
2023-02-02T02:49:56.785Z,97775.19
2023-02-02T02:51:30.217Z,97780.94
2023-02-02T02:52:35.025Z,97780.22
2023-02-02T02:53:38.385Z,97787.41
2023-02-02T02:54:46.276Z,97783.03
2023-02-02T02:56:03.060Z,97786.88
2023-02-02T02:57:27.698Z,97800.75
2023-02-02T02:58:33.337Z,97786.88
2023-02-02T02:59:42.316Z,97782.72
2023-02-02T03:01:02.338Z,97783.44
2023-02-02T03:02:19.169Z,97779.78
2023-02-02T03:03:58.189Z,97770.03
2023-02-02T03:05:01.062Z,97775.09
2023-02-02T03:06:45.301Z,97778.88
2023-02-02T03:07:58.302Z,97778.66
2023-02-02T03:09:05.019Z,97785.16
2023-02-02T03:10:13.707Z,97791.63
2023-02-02T03:11:21.066Z,97785.16
2023-02-02T03:12:24.580Z,97783.91
2023-02-02T03:13:28.420Z,97782.25
2023-02-02T03:14:35.762Z,97778.31
2023-02-02T03:15:45.953Z,97780.81
2023-02-02T03:16:51.876Z,97780.06
2023-02-02T03:17:55.353Z,97777.22
2023-02-02T03:18:58.544Z,97777.94
2023-02-02T03:20:01.525Z,97778.34
2023-02-02T03:21:04.697Z,97788.06
2023-02-02T03:22:07.826Z,97782.50
2023-02-02T03:23:10.970Z,97799.28
2023-02-02T03:24:14.072Z,97798.56
2023-02-02T03:25:17.220Z,97801.69
2023-02-02T03:26:20.472Z,97803.66
2023-02-02T03:27:24.198Z,97805.28
2023-02-02T03:28:28.521Z,97808.00
2023-02-02T03:29:31.795Z,97807.09
2023-02-02T03:30:35.009Z,97807.59
2023-02-02T03:31:38.456Z,97796.25
2023-02-02T03:32:42.013Z,97792.81
2023-02-02T03:33:45.227Z,97795.88
2023-02-02T03:34:48.133Z,97793.88
2023-02-02T03:35:51.103Z,97789.88
2023-02-02T03:36:54.057Z,97803.19
2023-02-02T03:37:57.377Z,97797.06
2023-02-02T03:39:00.879Z,97802.28
2023-02-02T03:40:05.142Z,97796.19
2023-02-02T03:41:08.155Z,97803.19
2023-02-02T03:42:11.178Z,97800.69
2023-02-02T03:43:14.066Z,97808.28
2023-02-02T03:44:16.911Z,97804.66
2023-02-02T03:45:19.996Z,97804.66
2023-02-02T03:46:23.208Z,97803.00
2023-02-02T03:47:30.111Z,97800.31
2023-02-02T03:48:37.544Z,97805.41
2023-02-02T03:49:40.579Z,97807.25
2023-02-02T03:50:43.499Z,97811.00
2023-02-02T03:51:46.625Z,97807.03
2023-02-02T03:52:49.511Z,97804.66
2023-02-02T03:53:52.464Z,97802.69
2023-02-02T03:54:55.421Z,97800.84
2023-02-02T03:55:58.362Z,97797.44
2023-02-02T03:57:01.371Z,97800.47
2023-02-02T03:58:04.522Z,97783.00
2023-02-02T03:59:07.517Z,97795.22
2023-02-02T04:00:12.544Z,97784.91
2023-02-02T04:01:16.139Z,97788.75
2023-02-02T04:02:19.281Z,97782.06
2023-02-02T04:03:22.133Z,97781.66
2023-02-02T04:04:25.376Z,97775.47
2023-02-02T04:05:28.524Z,97769.88
2023-02-02T04:06:31.667Z,97768.41
2023-02-02T04:07:34.620Z,97774.53
2023-02-02T04:08:39.715Z,97767.31
2023-02-02T04:09:42.923Z,97766.56
2023-02-02T04:10:46.055Z,97770.16
2023-02-02T04:11:49.366Z,97768.31
2023-02-02T04:12:52.414Z,97767.22
2023-02-02T04:13:55.342Z,97768.50
2023-02-02T04:14:58.397Z,97778.19
2023-02-02T04:16:02.014Z,97763.22
2023-02-02T04:17:05.126Z,97762.16
2023-02-02T04:18:08.189Z,97752.78
2023-02-02T04:19:13.415Z,97764.88
2023-02-02T04:20:16.920Z,97752.06
2023-02-02T04:21:19.857Z,97754.38
2023-02-02T04:22:22.851Z,97757.81
2023-02-02T04:23:26.067Z,97756.28
2023-02-02T04:24:29.228Z,97768.56
2023-02-02T04:25:32.137Z,97757.00
2023-02-02T04:26:35.397Z,97758.19
2023-02-02T04:27:38.496Z,97758.94
2023-02-02T04:28:41.776Z,97749.91
2023-02-02T04:29:44.822Z,97753.97
2023-02-02T04:30:48.380Z,97753.25
2023-02-02T04:31:51.521Z,97745.66
2023-02-02T04:32:55.288Z,97759.72
2023-02-02T04:33:59.306Z,97751.38
2023-02-02T04:35:02.344Z,97755.34
2023-02-02T04:36:05.977Z,97756.81
2023-02-02T04:37:09.064Z,97740.38
2023-02-02T04:38:12.429Z,97752.47
2023-02-02T04:39:15.696Z,97739.66
2023-02-02T04:40:19.060Z,97739.13
2023-02-02T04:41:22.984Z,97741.28
2023-02-02T04:42:25.900Z,97740.97
2023-02-02T04:43:29.007Z,97742.03
2023-02-02T04:44:36.048Z,97740.56
2023-02-02T04:45:39.388Z,97735.50
2023-02-02T04:46:45.711Z,97746.97
2023-02-02T04:47:48.829Z,97749.06
2023-02-02T04:48:51.859Z,97746.38
2023-02-02T04:49:54.619Z,97741.53
2023-02-02T04:51:07.300Z,97745.13
2023-02-02T04:52:11.774Z,97745.75
2023-02-02T04:53:14.769Z,97751.59
2023-02-02T04:54:18.463Z,97750.13
2023-02-02T04:55:21.712Z,97749.59
2023-02-02T04:56:24.651Z,97745.63
2023-02-02T04:57:27.746Z,97744.50
2023-02-02T04:58:33.060Z,97745.56
2023-02-02T04:59:36.081Z,97752.97
2023-02-02T05:00:39.226Z,97746.63
2023-02-02T05:01:42.188Z,97743.53
2023-02-02T05:02:45.181Z,97749.06
2023-02-02T05:03:49.320Z,97752.16
2023-02-02T05:04:52.326Z,97750.69
2023-02-02T05:06:03.010Z,97749.25
2023-02-02T05:07:06.277Z,97752.69
2023-02-02T05:08:13.080Z,97737.72
2023-02-02T05:09:16.086Z,97744.44
2023-02-02T05:10:19.191Z,97746.53
2023-02-02T05:12:31.593Z,97738.56
2023-02-02T05:13:35.030Z,97731.03
2023-02-02T05:14:38.125Z,97738.44
2023-02-02T05:15:40.943Z,97732.72
2023-02-02T05:16:43.926Z,97734.47
2023-02-02T05:17:48.230Z,97734.78
2023-02-02T05:18:52.883Z,97743.25
2023-02-02T05:19:55.904Z,97748.72
2023-02-02T05:21:03.228Z,97750.50
2023-02-02T05:22:06.346Z,97745.53
2023-02-02T05:23:09.200Z,97738.50
2023-02-02T05:24:13.058Z,97738.25
2023-02-02T05:25:16.364Z,97750.22
2023-02-02T05:26:25.324Z,97749.91
2023-02-02T05:27:28.658Z,97758.75
2023-02-02T05:28:31.888Z,97754.91
2023-02-02T05:29:34.926Z,97753.75
2023-02-02T05:30:40.671Z,97758.97
2023-02-02T05:31:43.785Z,97761.16
2023-02-02T05:32:46.756Z,97766.38
2023-02-02T05:33:49.727Z,97755.34
2023-02-02T05:34:56.051Z,97763.06
2023-02-02T05:35:59.081Z,97769.91
2023-02-02T05:37:02.185Z,97768.84
2023-02-02T05:38:05.292Z,97768.75
2023-02-02T05:39:09.642Z,97768.34
2023-02-02T05:40:12.776Z,97764.69
2023-02-02T05:41:15.771Z,97760.75
2023-02-02T05:42:18.687Z,97771.38
2023-02-02T05:43:24.683Z,97776.03
2023-02-02T05:44:27.679Z,97770.41
2023-02-02T05:45:30.549Z,97776.13
2023-02-02T05:46:33.607Z,97771.16
2023-02-02T05:47:36.541Z,97790.47
2023-02-02T05:48:43.100Z,97776.03
2023-02-02T05:49:46.000Z,97774.06
2023-02-02T05:50:59.977Z,97776.03
2023-02-02T05:52:06.079Z,97784.16
2023-02-02T05:53:10.885Z,97791.53
2023-02-02T05:54:17.600Z,97789.16
2023-02-02T05:55:20.565Z,97786.12
2023-02-02T05:56:23.526Z,97774.97
2023-02-02T05:57:28.444Z,97787.28
2023-02-02T05:58:31.498Z,97780.72
2023-02-02T05:59:34.368Z,97772.09
2023-02-02T06:00:37.264Z,97773.88
2023-02-02T06:01:40.443Z,97782.81
2023-02-02T06:02:43.993Z,97785.31
2023-02-02T06:03:47.399Z,97783.94
2023-02-02T06:04:50.389Z,97783.00
2023-02-02T06:05:53.451Z,97786.03
2023-02-02T06:06:56.801Z,97793.63
2023-02-02T06:07:59.885Z,97788.63
2023-02-02T06:09:03.153Z,97790.81
2023-02-02T06:10:06.833Z,97800.50
2023-02-02T06:11:11.959Z,97814.53
2023-02-02T06:12:14.952Z,97814.72
2023-02-02T06:13:17.885Z,97822.13
2023-02-02T06:14:25.063Z,97820.16
2023-02-02T06:15:29.279Z,97815.66
2023-02-02T06:16:32.430Z,97814.44
2023-02-02T06:17:36.142Z,97816.78
2023-02-02T06:18:39.373Z,97805.34
2023-02-02T06:19:42.581Z,97806.09
2023-02-02T06:20:47.192Z,97811.50
2023-02-02T06:21:50.207Z,97810.34
2023-02-02T06:22:53.235Z,97817.75
2023-02-02T06:23:56.238Z,97819.72
2023-02-02T06:24:59.317Z,97822.75
2023-02-02T06:26:03.845Z,97820.44
2023-02-02T06:27:06.907Z,97821.19
2023-02-02T06:28:10.006Z,97817.53
2023-02-02T06:29:14.607Z,97825.62
2023-02-02T06:30:18.113Z,97827.94
2023-02-02T06:31:21.838Z,97825.75
2023-02-02T06:32:24.961Z,97830.66
2023-02-02T06:33:28.242Z,97832.72
2023-02-02T06:34:31.350Z,97839.56
2023-02-02T06:35:35.040Z,97827.31
2023-02-02T06:36:37.950Z,97835.00
2023-02-02T06:37:42.431Z,97840.94
2023-02-02T06:38:49.531Z,97844.37
2023-02-02T06:39:52.584Z,97855.38
2023-02-02T06:40:56.254Z,97847.25
2023-02-02T06:42:02.034Z,97851.41
2023-02-02T06:43:09.658Z,97853.94
2023-02-02T06:44:15.550Z,97855.19
2023-02-02T06:45:18.611Z,97851.84
2023-02-02T06:46:22.227Z,97854.97
2023-02-02T06:47:26.812Z,97861.72
2023-02-02T06:48:30.134Z,97861.00
2023-02-02T06:49:33.134Z,97860.59
2023-02-02T06:50:36.551Z,97868.06
2023-02-02T06:51:39.768Z,97863.69
2023-02-02T06:52:52.949Z,97864.72
2023-02-02T06:53:58.354Z,97861.22
2023-02-02T06:55:06.079Z,97865.47
2023-02-02T06:56:13.237Z,97852.28
2023-02-02T06:57:16.325Z,97867.87
2023-02-02T06:58:19.285Z,97865.69
2023-02-02T06:59:22.352Z,97865.88
2023-02-02T07:00:26.000Z,97874.19
2023-02-02T07:01:29.238Z,97871.28
2023-02-02T07:02:36.095Z,97863.28
2023-02-02T07:03:39.764Z,97859.66
2023-02-02T07:04:42.758Z,97864.09
2023-02-02T07:05:45.704Z,97859.53
2023-02-02T07:06:48.930Z,97864.09
2023-02-02T07:07:52.206Z,97859.03
2023-02-02T07:09:02.118Z,97866.63
2023-02-02T07:10:06.330Z,97856.81
2023-02-02T07:11:16.641Z,97853.50
2023-02-02T07:12:20.217Z,97858.72
2023-02-02T07:13:23.631Z,97856.81
2023-02-02T07:14:27.357Z,97857.34
2023-02-02T07:15:30.257Z,97855.91
2023-02-02T07:16:33.501Z,97854.66
2023-02-02T07:17:40.344Z,97856.22
2023-02-02T07:18:44.073Z,97857.97
2023-02-02T07:19:47.368Z,97859.03
2023-02-02T07:20:50.629Z,97865.59
2023-02-02T07:21:54.212Z,97856.72
2023-02-02T07:22:57.215Z,97856.94
2023-02-02T07:24:00.682Z,97863.50
2023-02-02T07:25:03.676Z,97852.34
2023-02-02T07:26:09.213Z,97851.63
2023-02-02T07:27:12.158Z,97859.53
2023-02-02T07:28:15.057Z,97855.56
2023-02-02T07:29:17.948Z,97857.34
2023-02-02T07:30:21.663Z,97858.47
2023-02-02T07:31:27.134Z,97853.19
2023-02-02T07:32:30.243Z,97861.38
2023-02-02T07:33:33.137Z,97844.59
2023-02-02T07:34:39.823Z,97853.66
2023-02-02T07:35:42.857Z,97853.13
2023-02-02T07:36:45.834Z,97846.34
2023-02-02T07:37:56.319Z,97856.34
2023-02-02T07:38:59.931Z,97856.75
2023-02-02T07:40:06.073Z,97851.94
2023-02-02T07:41:09.201Z,97855.91
2023-02-02T07:42:13.336Z,97851.41
2023-02-02T07:43:16.272Z,97857.28
2023-02-02T07:44:22.285Z,97861.34
2023-02-02T07:45:36.415Z,97860.50
2023-02-02T07:46:40.280Z,97867.25
2023-02-02T07:47:43.288Z,97864.72
2023-02-02T07:48:46.770Z,97870.84
2023-02-02T07:49:49.730Z,97872.44
2023-02-02T07:50:52.702Z,97865.97
2023-02-02T07:51:55.757Z,97870.34
2023-02-02T07:53:00.933Z,97884.28
2023-02-02T07:54:04.361Z,97873.53
2023-02-02T07:55:14.750Z,97877.16
2023-02-02T07:56:21.552Z,97877.19
2023-02-02T07:57:29.318Z,97880.53
2023-02-02T07:58:32.544Z,97881.84
2023-02-02T07:59:35.964Z,97890.88
2023-02-02T08:00:39.082Z,97892.75
2023-02-02T08:01:42.394Z,97892.28
2023-02-02T08:02:48.764Z,97897.34
2023-02-02T08:03:53.983Z,97897.69
2023-02-02T08:04:56.972Z,97894.84
2023-02-02T08:06:00.534Z,97897.75
2023-02-02T08:07:03.568Z,97883.31
2023-02-02T08:08:06.654Z,97893.31
2023-02-02T08:09:10.533Z,97893.12
2023-02-02T08:10:13.784Z,97900.38
2023-02-02T08:11:19.845Z,97895.34
2023-02-02T08:12:24.878Z,97909.62
2023-02-02T08:13:28.580Z,97904.44
2023-02-02T08:14:32.675Z,97906.97
2023-02-02T08:15:39.123Z,97908.03
2023-02-02T08:16:42.091Z,97908.44
2023-02-02T08:17:47.092Z,97911.38
2023-02-02T08:18:50.645Z,97913.56
2023-02-02T08:19:53.829Z,97917.38
2023-02-02T08:21:02.734Z,97917.25
2023-02-02T08:22:05.833Z,97915.97
2023-02-02T08:23:16.028Z,97920.53
2023-02-02T08:24:18.994Z,97925.03
2023-02-02T08:25:22.227Z,97927.06
2023-02-02T08:26:28.496Z,97926.34
2023-02-02T08:27:32.055Z,97918.38
2023-02-02T08:28:36.914Z,97924.00
2023-02-02T08:29:39.962Z,97918.25
2023-02-02T08:30:43.186Z,97926.78
2023-02-02T08:31:46.571Z,97918.66
2023-02-02T08:32:49.600Z,97915.75
2023-02-02T08:33:54.296Z,97918.31
2023-02-02T08:34:57.206Z,97918.84
2023-02-02T08:36:00.133Z,97920.50
2023-02-02T08:37:04.268Z,97913.78
2023-02-02T08:38:07.827Z,97922.50
2023-02-02T08:39:13.361Z,97920.00
2023-02-02T08:40:16.719Z,97925.63
2023-02-02T08:41:23.120Z,97913.69
2023-02-02T08:42:26.212Z,97920.56
2023-02-02T08:43:30.018Z,97914.25
2023-02-02T08:44:43.101Z,97918.25
2023-02-02T08:46:12.728Z,97920.44
2023-02-02T08:47:17.170Z,97918.97
2023-02-02T08:48:24.256Z,97916.44
2023-02-02T08:49:28.057Z,97917.91
2023-02-02T08:50:30.927Z,97924.44
2023-02-02T08:51:33.903Z,97923.03
2023-02-02T08:52:36.867Z,97923.38
2023-02-02T08:53:39.718Z,97931.53
2023-02-02T08:54:42.693Z,97923.59
2023-02-02T08:55:45.621Z,97933.41
2023-02-02T08:56:48.664Z,97931.41
2023-02-02T08:57:51.733Z,97933.97
2023-02-02T08:58:58.680Z,97934.16
2023-02-02T09:00:01.773Z,97928.34
2023-02-02T09:01:13.077Z,97938.53
2023-02-02T09:02:17.100Z,97928.00
2023-02-02T09:03:21.027Z,97925.69
2023-02-02T09:04:28.116Z,97934.34
2023-02-02T09:05:31.001Z,97925.84
2023-02-02T09:06:40.102Z,97929.13
2023-02-02T09:07:43.329Z,97934.38
2023-02-02T09:08:47.021Z,97940.16
2023-02-02T09:09:52.155Z,97946.53
2023-02-02T09:10:55.465Z,97942.34
2023-02-02T09:12:03.096Z,97938.38
2023-02-02T09:13:06.263Z,97934.38
2023-02-02T09:14:11.188Z,97933.09
2023-02-02T09:15:14.241Z,97926.03
2023-02-02T09:16:19.008Z,97931.28
2023-02-02T09:17:22.616Z,97934.75
2023-02-02T09:18:27.372Z,97931.66
2023-02-02T09:19:30.769Z,97930.03
2023-02-02T09:20:34.068Z,97936.34
2023-02-02T09:21:37.588Z,97945.44
2023-02-02T09:22:40.560Z,97939.25
2023-02-02T09:23:44.897Z,97946.50
2023-02-02T09:24:47.910Z,97936.88
2023-02-02T09:25:50.987Z,97935.06
2023-02-02T09:26:54.088Z,97933.47
2023-02-02T09:27:57.381Z,97940.69
2023-02-02T09:29:04.214Z,97948.84
2023-02-02T09:30:08.717Z,97941.44
2023-02-02T09:31:12.029Z,97935.06
2023-02-02T09:32:15.121Z,97933.09
2023-02-02T09:33:18.149Z,97930.69
2023-02-02T09:34:21.020Z,97935.63
2023-02-02T09:35:24.469Z,97936.13
2023-02-02T09:36:28.047Z,97934.13
2023-02-02T09:37:34.744Z,97931.41
2023-02-02T09:38:40.660Z,97937.19
2023-02-02T09:39:43.773Z,97931.91
2023-02-02T09:40:47.578Z,97932.59
2023-02-02T09:42:23.679Z,97935.69
2023-02-02T09:43:45.126Z,97928.78
2023-02-02T09:44:48.387Z,97935.28
2023-02-02T09:46:10.226Z,97939.47
2023-02-02T09:47:20.989Z,97943.81
2023-02-02T09:48:53.639Z,97942.87
2023-02-02T09:50:28.985Z,97940.31
2023-02-02T09:51:44.125Z,97957.19
2023-02-02T09:53:12.047Z,97949.47
2023-02-02T09:54:20.637Z,97953.78
2023-02-02T09:55:40.710Z,97977.19
2023-02-02T09:56:51.055Z,97965.19
2023-02-02T09:58:04.583Z,97976.97
2023-02-02T09:59:21.395Z,97968.81
2023-02-02T10:00:32.405Z,97974.25
2023-02-02T10:01:39.406Z,97964.47
2023-02-02T10:02:46.415Z,97972.47
2023-02-02T10:04:05.719Z,97970.31
2023-02-02T10:05:19.383Z,97984.88
2023-02-02T10:06:36.101Z,97980.19
2023-02-02T10:07:47.739Z,97981.13
2023-02-02T10:08:58.070Z,97982.22
2023-02-02T10:10:11.126Z,97985.50
2023-02-02T10:11:26.527Z,97982.38
2023-02-02T10:12:47.651Z,97986.25
2023-02-02T10:13:53.399Z,97988.06
2023-02-02T10:15:37.762Z,97988.06
2023-02-02T10:16:41.592Z,97995.56
2023-02-02T10:17:50.320Z,97998.13
2023-02-02T10:19:10.022Z,97995.41
2023-02-02T10:20:45.217Z,97998.53
2023-02-02T10:22:19.895Z,97997.06
2023-02-02T10:23:36.027Z,97995.63
2023-02-02T10:24:39.271Z,97997.63
2023-02-02T10:26:11.644Z,97997.06
2023-02-02T10:27:18.005Z,97989.09
2023-02-02T10:28:32.371Z,97998.72
2023-02-02T10:29:49.678Z,97993.78
2023-02-02T10:31:02.899Z,97991.81
2023-02-02T10:32:23.586Z,97992.00
2023-02-02T10:33:40.034Z,97989.09
2023-02-02T10:35:11.006Z,97993.78
2023-02-02T10:36:30.523Z,97994.88
2023-02-02T10:37:57.274Z,98003.06
2023-02-02T10:39:40.424Z,98002.88
2023-02-02T10:41:08.269Z,98002.53
2023-02-02T10:42:20.009Z,97999.41
2023-02-02T10:43:47.314Z,97990.34
2023-02-02T10:45:19.288Z,97992.91
2023-02-02T10:46:31.664Z,98002.72
2023-02-02T10:47:35.175Z,97995.25
2023-02-02T10:48:47.752Z,97999.59
2023-02-02T10:50:02.060Z,97999.59
2023-02-02T10:51:18.535Z,97990.91
2023-02-02T10:52:29.949Z,97992.53
2023-02-02T10:53:33.850Z,97986.19
2023-02-02T10:55:04.217Z,97990.16
2023-02-02T10:56:12.371Z,97996.16
2023-02-02T10:57:20.522Z,97984.50
2023-02-02T10:58:29.815Z,97983.63
2023-02-02T10:59:36.152Z,97992.88
2023-02-02T11:00:51.612Z,98002.88
2023-02-02T11:01:54.906Z,98001.97
2023-02-02T11:02:59.312Z,97988.34
2023-02-02T11:04:21.246Z,97990.19
2023-02-02T11:05:45.201Z,97989.47
2023-02-02T11:06:51.169Z,97994.38
2023-02-02T11:07:55.121Z,97986.56
2023-02-02T11:09:00.872Z,97994.91
2023-02-02T11:10:04.497Z,97991.81
2023-02-02T11:11:13.473Z,97985.09
2023-02-02T11:12:29.234Z,97984.91
2023-02-02T11:13:37.828Z,97986.38
2023-02-02T11:14:47.707Z,97986.75
2023-02-02T11:15:50.948Z,97971.69
2023-02-02T11:17:09.121Z,97982.22
2023-02-02T11:18:31.153Z,97981.87
2023-02-02T11:19:35.034Z,97982.94
2023-02-02T11:20:39.343Z,97970.06
2023-02-02T11:21:47.993Z,97980.94
2023-02-02T11:23:01.389Z,97974.78
2023-02-02T11:24:25.285Z,97972.59
2023-02-02T11:25:34.442Z,97973.87
2023-02-02T11:26:48.489Z,97965.53
2023-02-02T11:27:52.163Z,97971.16
2023-02-02T11:28:59.219Z,97965.16
2023-02-02T11:30:23.432Z,97963.69
2023-02-02T11:31:37.913Z,97964.75
2023-02-02T11:32:42.177Z,97958.37
2023-02-02T11:33:45.097Z,97958.22
2023-02-02T11:34:48.347Z,97961.88
2023-02-02T11:35:58.237Z,97972.56
2023-02-02T11:37:14.476Z,97956.78
2023-02-02T11:38:17.797Z,97959.34
2023-02-02T11:39:21.995Z,97952.41
2023-02-02T11:40:35.383Z,97954.41
2023-02-02T11:41:39.110Z,97960.41
2023-02-02T11:42:50.327Z,97967.16
2023-02-02T11:43:55.474Z,97973.84
2023-02-02T11:44:59.576Z,97970.94
2023-02-02T11:46:06.560Z,97964.59
2023-02-02T11:47:24.948Z,97964.03
2023-02-02T11:48:38.151Z,97957.16
2023-02-02T11:49:44.217Z,97959.50
2023-02-02T11:50:50.616Z,97961.16
2023-02-02T11:52:05.320Z,97962.06
2023-02-02T11:53:26.911Z,97958.06
2023-02-02T11:54:37.117Z,97970.03
2023-02-02T11:55:43.725Z,97960.06
2023-02-02T11:56:52.589Z,97962.25
2023-02-02T11:58:12.070Z,97967.16
2023-02-02T11:59:42.737Z,97965.50
2023-02-02T12:01:01.347Z,97957.16
2023-02-02T12:02:16.368Z,97967.50
2023-02-02T12:03:37.185Z,97974.19
2023-02-02T12:04:41.008Z,97964.59
2023-02-02T12:05:46.886Z,97960.25
2023-02-02T12:06:50.088Z,97960.78
2023-02-02T12:07:53.226Z,97958.97
2023-02-02T12:09:01.603Z,97958.97
2023-02-02T12:10:15.453Z,97964.41
2023-02-02T12:12:12.015Z,97960.97
2023-02-02T12:13:20.573Z,97951.00
2023-02-02T12:14:36.281Z,97956.44
2023-02-02T12:15:41.964Z,97962.09
2023-02-02T12:17:08.324Z,97964.09
2023-02-02T12:18:14.326Z,97954.28
2023-02-02T12:19:29.294Z,97950.66
2023-02-02T12:21:05.264Z,97954.09
2023-02-02T12:22:43.152Z,97956.44
2023-02-02T12:24:14.815Z,97956.09
2023-02-02T12:25:42.271Z,97955.72
2023-02-02T12:26:54.330Z,97973.53
2023-02-02T12:28:25.901Z,97961.16
2023-02-02T12:29:42.121Z,97954.47
2023-02-02T12:30:50.988Z,97960.28
2023-02-02T12:32:28.243Z,97959.91
2023-02-02T12:33:41.796Z,97952.66
2023-02-02T12:34:59.352Z,97955.56
2023-02-02T12:36:27.645Z,97945.56
2023-02-02T12:37:52.078Z,97944.66
2023-02-02T12:39:10.629Z,97959.56
2023-02-02T12:40:28.599Z,97944.84
2023-02-02T12:41:34.462Z,97949.94
2023-02-02T12:42:52.645Z,97949.94
2023-02-02T12:44:23.446Z,97947.03
2023-02-02T12:45:26.471Z,97950.13
2023-02-02T12:46:45.259Z,97945.22
2023-02-02T12:48:04.055Z,97958.44
2023-02-02T12:49:25.813Z,97957.91
2023-02-02T12:50:41.068Z,97944.31
2023-02-02T12:51:49.970Z,97953.53
2023-02-02T12:52:58.650Z,97948.47
2023-02-02T12:54:32.546Z,97949.56
2023-02-02T12:55:50.493Z,97938.66
2023-02-02T12:57:31.471Z,97955.00
2023-02-02T12:59:01.474Z,97957.87
2023-02-02T13:00:24.273Z,97954.62
2023-02-02T13:02:12.128Z,97944.63
2023-02-02T13:03:24.000Z,97953.16
2023-02-02T13:06:27.703Z,97946.13
2023-02-02T13:07:36.725Z,97958.06
2023-02-02T13:08:45.298Z,97937.56
2023-02-02T13:10:04.480Z,97949.16
2023-02-02T13:11:30.157Z,97960.22
2023-02-02T13:12:40.003Z,97963.88
2023-02-02T13:13:44.117Z,97953.34
2023-02-02T13:14:56.091Z,97923.19
2023-02-02T13:16:06.830Z,97950.22
2023-02-02T13:17:19.717Z,97945.53
2023-02-02T13:18:40.009Z,97960.75
2023-02-02T13:20:06.530Z,97952.78
2023-02-02T13:21:17.125Z,97951.31